Time;durP1;ratioP1;P1;durP2;ratioP2;P2;SDS_P1;SDS_P2;PMS_P1;PMS_P2;Temp;Humidity;BMP_temperature;BMP_pressure;BME280_temperature;BME280_humidity;BME280_pressure;Samples;Min_cycle;Max_cycle;Signal;HPM_P1;HPM_P2
2022/04/22 00:00:32;;;;;;;;;;;10.00;99.90;;;;;;5051850;28;19925;-74
2022/04/22 00:02:59;;;;;;;;;;;10.00;99.90;;;;;;5052215;28;19924;-74
2022/04/22 00:05:26;;;;;;;;;;;9.90;99.90;;;;;;5051793;28;20334;-73
2022/04/22 00:07:53;;;;;;;;;;;9.90;99.90;;;;;;5051884;28;19925;-73
2022/04/22 00:10:20;;;;;;;;;;;9.90;99.90;;;;;;5051388;28;19924;-73
2022/04/22 00:12:47;;;;;;;;;;;9.80;99.90;;;;;;5060986;28;19939;-73
2022/04/22 00:15:16;;;;;;;;;;;9.80;99.90;;;;;;5051468;28;19925;-73
2022/04/22 00:17:43;;;;;;;;;;;9.70;99.90;;;;;;5050612;28;19925;-74
2022/04/22 00:20:11;;;;;;;;;;;9.70;99.90;;;;;;5050419;28;19925;-74
2022/04/22 00:22:39;;;;;;;;;;;9.70;99.90;;;;;;5050803;28;19925;-73
2022/04/22 00:25:07;;;;;;;;;;;9.70;99.90;;;;;;5059376;28;19935;-73
2022/04/22 00:27:34;;;;;;;;;;;9.70;99.90;;;;;;5051499;28;19932;-73
2022/04/22 00:30:00;;;;;;;;;;;9.70;99.90;;;;;;5051159;28;19925;-73
2022/04/22 00:32:29;;;;;;;;;;;9.60;99.90;;;;;;5051145;28;19924;-73
2022/04/22 00:34:56;;;;;;;;;;;9.60;99.90;;;;;;5051176;28;20300;-73
2022/04/22 00:37:22;;;;;;;;;;;9.60;99.90;;;;;;5050762;28;19929;-71
2022/04/22 00:39:49;;;;;;;;;;;9.60;99.90;;;;;;5051112;28;20392;-73
2022/04/22 00:42:17;;;;;;;;;;;9.50;99.90;;;;;;5051007;28;19925;-73
2022/04/22 00:44:43;;;;;;;;;;;9.50;99.90;;;;;;5051291;28;19925;-73
2022/04/22 00:47:10;;;;;;;;;;;9.40;99.90;;;;;;5050899;28;20342;-72
2022/04/22 00:49:38;;;;;;;;;;;9.40;99.90;;;;;;5050730;28;19932;-73
2022/04/22 00:52:06;;;;;;;;;;;9.40;99.90;;;;;;5051152;28;19925;-73
2022/04/22 00:54:33;;;;;;;;;;;9.40;99.90;;;;;;5050917;28;19924;-73
2022/04/22 00:57:00;;;;;;;;;;;9.40;99.90;;;;;;5050950;28;19925;-73
2022/04/22 00:59:27;;;;;;;;;;;9.30;99.90;;;;;;5050387;28;20403;-73
2022/04/22 01:01:54;;;;;;;;;;;9.30;99.90;;;;;;5051273;28;19925;-73
2022/04/22 01:09:51;;;;;;;;;;;9.20;99.90;;;;;;5050849;28;20303;-73
2022/04/22 01:12:19;;;;;;;;;;;9.20;99.90;;;;;;5050950;28;19937;-73
2022/04/22 01:14:46;;;;;;;;;;;9.20;99.90;;;;;;5050711;28;19928;-73
2022/04/22 01:17:13;;;;;;;;;;;9.20;99.90;;;;;;5050932;28;19924;-73
2022/04/22 01:19:39;;;;;;;;;;;9.20;99.90;;;;;;5050735;28;19925;-73
2022/04/22 01:22:08;;;;;;;;;;;9.10;99.90;;;;;;5051004;28;19925;-73
2022/04/22 01:24:35;;;;;;;;;;;9.10;99.90;;;;;;5050722;28;19924;-73
2022/04/22 01:27:02;;;;;;;;;;;9.10;99.90;;;;;;5050496;28;19925;-73
2022/04/22 01:29:29;;;;;;;;;;;9.10;99.90;;;;;;5050086;28;19935;-72
2022/04/22 01:31:56;;;;;;;;;;;9.10;99.90;;;;;;5050821;28;19964;-74
2022/04/22 01:34:23;;;;;;;;;;;9.10;99.90;;;;;;5049787;28;19924;-73
2022/04/22 01:36:49;;;;;;;;;;;9.00;99.90;;;;;;5050936;28;19931;-73
2022/04/22 01:39:18;;;;;;;;;;;9.00;99.90;;;;;;5050611;28;19947;-73
2022/04/22 01:41:45;;;;;;;;;;;9.00;99.90;;;;;;5050597;28;20273;-73
2022/04/22 01:44:11;;;;;;;;;;;8.90;99.90;;;;;;5050704;28;19925;-74
2022/04/22 01:46:38;;;;;;;;;;;8.90;99.90;;;;;;5050635;28;19931;-74
2022/04/22 01:49:05;;;;;;;;;;;8.90;99.90;;;;;;5054413;28;19932;-73
2022/04/22 01:51:32;;;;;;;;;;;8.90;99.90;;;;;;5054488;28;19924;-73
2022/04/22 01:53:59;;;;;;;;;;;8.90;99.90;;;;;;5053955;28;20416;-73
2022/04/22 01:56:27;;;;;;;;;;;8.90;99.90;;;;;;5054540;28;19932;-73
2022/04/22 01:58:54;;;;;;;;;;;8.90;99.90;;;;;;5053973;28;19929;-73
2022/04/22 02:01:21;;;;;;;;;;;8.90;99.90;;;;;;5054123;28;19924;-74
2022/04/22 02:03:48;;;;;;;;;;;8.90;99.90;;;;;;5053970;28;19932;-73
2022/04/22 02:06:14;;;;;;;;;;;8.90;99.90;;;;;;5053948;28;20339;-74
2022/04/22 02:08:42;;;;;;;;;;;8.90;99.90;;;;;;5054242;28;19924;-73
2022/04/22 02:11:08;;;;;;;;;;;9.00;99.90;;;;;;5053963;28;19925;-73
2022/04/22 02:13:37;;;;;;;;;;;9.00;99.90;;;;;;5053625;28;19924;-73
2022/04/22 02:16:05;;;;;;;;;;;9.00;99.90;;;;;;5054032;28;20483;-73
2022/04/22 02:18:36;;;;;;;;;;;9.00;99.90;;;;;;5054170;28;19929;-73
2022/04/22 02:21:03;;;;;;;;;;;9.10;99.90;;;;;;5053766;28;20388;-73
2022/04/22 02:23:30;;;;;;;;;;;9.10;99.90;;;;;;5053820;28;19940;-74
2022/04/22 02:25:57;;;;;;;;;;;9.10;99.90;;;;;;5054005;28;19925;-73
2022/04/22 02:28:32;;;;;;;;;;;9.20;99.90;;;;;;5053618;28;19932;-72
2022/04/22 02:31:01;;;;;;;;;;;9.20;99.90;;;;;;5053082;28;19925;-73
2022/04/22 02:33:28;;;;;;;;;;;9.20;99.90;;;;;;5053199;28;19951;-73
2022/04/22 02:35:55;;;;;;;;;;;9.20;99.90;;;;;;5053108;28;19925;-73
2022/04/22 02:38:22;;;;;;;;;;;9.20;99.90;;;;;;5053762;28;20303;-73
2022/04/22 02:46:18;;;;;;;;;;;9.10;99.90;;;;;;5053285;28;19921;-73
2022/04/22 02:48:45;;;;;;;;;;;9.00;99.90;;;;;;5053587;28;19929;-73
2022/04/22 02:51:12;;;;;;;;;;;9.00;99.90;;;;;;5052894;28;19931;-73
2022/04/22 02:53:39;;;;;;;;;;;8.90;99.90;;;;;;5052814;28;19932;-73
2022/04/22 02:56:06;;;;;;;;;;;8.90;99.90;;;;;;5053311;28;19939;-73
2022/04/22 02:58:33;;;;;;;;;;;8.90;99.90;;;;;;5052578;28;19964;-74
2022/04/22 03:01:00;;;;;;;;;;;8.90;99.90;;;;;;5052678;28;19929;-73
2022/04/22 03:03:28;;;;;;;;;;;8.90;99.90;;;;;;5052898;28;20432;-74
2022/04/22 03:05:55;;;;;;;;;;;8.80;99.90;;;;;;5053065;28;20285;-73
2022/04/22 03:08:22;;;;;;;;;;;8.80;99.90;;;;;;5053141;28;19928;-73
2022/04/22 03:10:49;;;;;;;;;;;8.70;99.90;;;;;;5052853;28;19936;-73
2022/04/22 03:13:16;;;;;;;;;;;8.70;99.90;;;;;;5053086;28;19925;-74
2022/04/22 03:15:43;;;;;;;;;;;8.60;99.90;;;;;;5052662;28;19959;-74
2022/04/22 03:18:10;;;;;;;;;;;8.60;99.90;;;;;;5052810;28;19929;-73
2022/04/22 03:20:38;;;;;;;;;;;8.60;99.90;;;;;;5052631;28;19924;-74
2022/04/22 03:23:05;;;;;;;;;;;8.50;99.90;;;;;;5052896;28;19929;-74
2022/04/22 03:25:32;;;;;;;;;;;8.60;99.90;;;;;;5052617;28;19925;-73
2022/04/22 03:27:59;;;;;;;;;;;8.50;99.90;;;;;;5052498;28;19937;-73
2022/04/22 03:30:26;;;;;;;;;;;8.50;99.90;;;;;;5074848;23;19939;-72
2022/04/22 03:32:52;;;;;;;;;;;8.50;99.90;;;;;;5030541;28;19971;-73
2022/04/22 03:35:19;;;;;;;;;;;8.40;99.90;;;;;;5031406;28;19986;-73
2022/04/22 03:37:47;;;;;;;;;;;8.40;99.90;;;;;;5031319;28;19925;-73
2022/04/22 03:40:14;;;;;;;;;;;8.40;99.90;;;;;;5031198;28;20400;-73
2022/04/22 03:42:41;;;;;;;;;;;8.40;99.90;;;;;;5031083;28;19960;-73
2022/04/22 03:45:08;;;;;;;;;;;8.40;99.90;;;;;;5032356;28;19929;-73
2022/04/22 03:47:34;;;;;;;;;;;8.40;99.90;;;;;;5031065;28;19961;-73
2022/04/22 03:50:01;;;;;;;;;;;8.30;99.90;;;;;;5032242;28;19967;-72
2022/04/22 03:52:28;;;;;;;;;;;8.30;99.90;;;;;;5031140;28;20447;-73
2022/04/22 03:54:56;;;;;;;;;;;8.20;99.90;;;;;;5030988;28;20355;-73
2022/04/22 04:00:07;;;;;;;;;;;8.20;99.90;;;;;;5031012;28;20015;-74
2022/04/22 04:02:35;;;;;;;;;;;8.10;99.90;;;;;;5031189;28;19975;-71
2022/04/22 04:05:02;;;;;;;;;;;8.10;99.90;;;;;;5030689;28;19925;-73
2022/04/22 04:07:29;;;;;;;;;;;8.10;99.90;;;;;;5030789;28;19925;-73
2022/04/22 04:18:10;;;;;;;;;;;7.90;99.90;;;;;;5030860;28;19921;-74
2022/04/22 04:23:21;;;;;;;;;;;7.90;99.90;;;;;;5030731;28;19929;-74
2022/04/22 04:25:51;;;;;;;;;;;7.80;99.90;;;;;;5030351;28;19936;-74
2022/04/22 04:28:18;;;;;;;;;;;7.80;99.90;;;;;;5030773;28;19929;-74
2022/04/22 04:30:45;;;;;;;;;;;7.80;99.90;;;;;;5030332;28;19925;-74
2022/04/22 04:33:12;;;;;;;;;;;7.80;99.90;;;;;;5030610;28;19932;-74
2022/04/22 04:35:40;;;;;;;;;;;7.80;99.90;;;;;;5030228;28;19925;-73
2022/04/22 04:38:07;;;;;;;;;;;7.80;99.90;;;;;;5030611;28;19925;-74
2022/04/22 04:40:35;;;;;;;;;;;7.80;99.90;;;;;;5030441;28;19929;-74
2022/04/22 04:43:05;;;;;;;;;;;7.70;99.90;;;;;;5030536;28;19925;-73
2022/04/22 04:45:31;;;;;;;;;;;7.70;99.90;;;;;;5030138;28;20447;-73
2022/04/22 04:47:58;;;;;;;;;;;7.70;99.90;;;;;;5030185;28;20417;-73
2022/04/22 04:50:25;;;;;;;;;;;7.70;99.90;;;;;;5030115;28;19932;-72
2022/04/22 04:52:52;;;;;;;;;;;7.70;99.90;;;;;;5030188;28;19925;-73
2022/04/22 04:55:19;;;;;;;;;;;7.70;99.90;;;;;;5029959;28;19936;-73
2022/04/22 04:57:46;;;;;;;;;;;7.70;99.90;;;;;;5030074;28;20357;-74
2022/04/22 05:00:15;;;;;;;;;;;7.70;99.90;;;;;;5029792;28;19936;-75
2022/04/22 05:02:42;;;;;;;;;;;7.70;99.90;;;;;;5018121;28;19925;-74
2022/04/22 05:05:09;;;;;;;;;;;7.80;99.90;;;;;;5029722;28;19975;-73
2022/04/22 05:07:46;;;;;;;;;;;7.80;99.90;;;;;;5029745;28;19932;-73
2022/04/22 05:10:12;;;;;;;;;;;7.80;99.90;;;;;;5029609;28;19933;-74
2022/04/22 05:12:39;;;;;;;;;;;7.90;99.90;;;;;;5011194;28;19937;-73
2022/04/22 05:15:08;;;;;;;;;;;7.90;99.90;;;;;;5021921;28;20366;-74
2022/04/22 05:17:36;;;;;;;;;;;7.90;99.90;;;;;;5026419;28;19936;-74
2022/04/22 05:20:03;;;;;;;;;;;7.90;99.90;;;;;;5018263;28;19933;-73
2022/04/22 05:22:30;;;;;;;;;;;7.90;99.90;;;;;;5022659;28;20021;-73
2022/04/22 05:24:57;;;;;;;;;;;8.00;99.90;;;;;;5023543;28;19929;-73
2022/04/22 05:27:24;;;;;;;;;;;8.00;99.90;;;;;;5027563;28;19983;-74
2022/04/22 05:32:39;;;;;;;;;;;8.10;99.90;;;;;;5009971;28;20400;-74
2022/04/22 05:35:06;;;;;;;;;;;8.10;99.90;;;;;;5010084;28;19926;-74
2022/04/22 05:37:46;;;;;;;;;;;8.10;99.90;;;;;;5009750;28;19925;-74
2022/04/22 05:40:14;;;;;;;;;;;8.10;99.90;;;;;;5027270;28;19941;-73
2022/04/22 05:42:40;;;;;;;;;;;8.20;99.90;;;;;;5016706;28;20304;-74
2022/04/22 05:45:08;;;;;;;;;;;8.20;99.90;;;;;;5029525;28;20381;-74
2022/04/22 05:47:37;;;;;;;;;;;8.20;99.90;;;;;;5029661;28;19925;-74
2022/04/22 05:50:05;;;;;;;;;;;8.20;99.90;;;;;;5029412;28;19934;-73
2022/04/22 05:52:32;;;;;;;;;;;8.20;99.90;;;;;;5029381;28;20407;-74
2022/04/22 05:55:02;;;;;;;;;;;8.30;99.90;;;;;;5029296;28;20002;-75
2022/04/22 05:57:29;;;;;;;;;;;8.30;99.90;;;;;;5030161;28;19925;-75
2022/04/22 05:59:56;;;;;;;;;;;8.40;99.90;;;;;;5029089;28;19975;-73
2022/04/22 06:02:23;;;;;;;;;;;8.50;99.90;;;;;;5029545;28;19932;-73
2022/04/22 06:04:51;;;;;;;;;;;8.60;99.90;;;;;;5028950;28;19929;-73
2022/04/22 06:07:18;;;;;;;;;;;8.70;99.90;;;;;;5029415;28;20048;-74
2022/04/22 06:12:29;;;;;;;;;;;8.80;99.90;;;;;;5031209;28;19944;-74
2022/04/22 06:14:59;;;;;;;;;;;9.00;99.90;;;;;;5029266;28;20419;-74
2022/04/22 06:17:27;;;;;;;;;;;9.10;99.90;;;;;;5029315;28;20304;-73
2022/04/22 06:19:56;;;;;;;;;;;9.20;99.90;;;;;;5029113;28;19933;-73
2022/04/22 06:22:22;;;;;;;;;;;9.30;99.90;;;;;;5023688;28;19925;-73
2022/04/22 06:24:49;;;;;;;;;;;9.40;99.90;;;;;;5020164;28;19936;-74
2022/04/22 06:27:22;;;;;;;;;;;9.50;99.90;;;;;;5020693;28;19925;-73
2022/04/22 06:29:50;;;;;;;;;;;9.60;99.90;;;;;;5021401;28;19944;-74
2022/04/22 06:32:17;;;;;;;;;;;9.70;99.90;;;;;;5029062;28;20339;-74
2022/04/22 06:34:44;;;;;;;;;;;9.80;99.90;;;;;;5030558;28;19925;-73
2022/04/22 06:37:13;;;;;;;;;;;9.80;99.90;;;;;;5024697;28;19984;-73
2022/04/22 06:47:50;;;;;;;;;;;10.20;99.90;;;;;;5032759;28;20301;-74
2022/04/22 06:50:19;;;;;;;;;;;10.30;99.90;;;;;;5032614;28;19925;-74
2022/04/22 06:52:47;;;;;;;;;;;10.40;99.90;;;;;;5032541;28;19925;-74
2022/04/22 06:55:15;;;;;;;;;;;10.50;99.90;;;;;;5032325;28;19925;-74
2022/04/22 06:57:46;;;;;;;;;;;10.60;99.90;;;;;;5032821;28;19925;-74
2022/04/22 07:00:14;;;;;;;;;;;10.70;99.90;;;;;;5032267;28;19925;-75
2022/04/22 07:02:41;;;;;;;;;;;10.80;99.90;;;;;;5032829;28;20480;-74
2022/04/22 07:05:10;;;;;;;;;;;10.80;99.90;;;;;;5032286;28;20419;-74
2022/04/22 07:07:37;;;;;;;;;;;11.00;99.90;;;;;;5032281;28;19929;-74
2022/04/22 07:10:06;;;;;;;;;;;11.10;99.90;;;;;;5031928;28;19932;-74
2022/04/22 07:12:33;;;;;;;;;;;11.10;99.90;;;;;;5032242;28;19974;-74
2022/04/22 07:15:03;;;;;;;;;;;11.30;99.90;;;;;;5031950;28;19936;-74
2022/04/22 07:17:30;;;;;;;;;;;11.40;99.90;;;;;;5032132;28;19929;-74
2022/04/22 07:19:57;;;;;;;;;;;11.40;99.90;;;;;;5031698;28;19929;-73
2022/04/22 07:22:24;;;;;;;;;;;11.50;99.90;;;;;;5031969;28;19925;-74
2022/04/22 07:24:51;;;;;;;;;;;11.50;99.90;;;;;;5031538;28;19933;-74
2022/04/22 07:27:20;;;;;;;;;;;11.60;99.90;;;;;;5031897;28;19925;-74
2022/04/22 07:29:47;;;;;;;;;;;11.60;99.90;;;;;;5031461;28;20443;-74
2022/04/22 07:32:14;;;;;;;;;;;11.70;99.90;;;;;;5031579;28;19932;-74
2022/04/22 07:34:41;;;;;;;;;;;11.70;99.90;;;;;;5031189;28;19951;-75
2022/04/22 07:37:09;;;;;;;;;;;11.80;99.90;;;;;;5031795;28;19975;-74
2022/04/22 07:39:38;;;;;;;;;;;11.90;99.90;;;;;;5031430;28;19929;-74
2022/04/22 07:42:06;;;;;;;;;;;11.90;99.90;;;;;;5031786;28;20024;-74
2022/04/22 07:47:22;;;;;;;;;;;12.20;99.90;;;;;;5022697;28;19995;-74
2022/04/22 07:49:50;;;;;;;;;;;12.40;99.90;;;;;;5022741;28;19964;-74
2022/04/22 07:52:17;;;;;;;;;;;12.50;99.90;;;;;;5026178;28;19968;-74
2022/04/22 07:54:44;;;;;;;;;;;12.60;99.90;;;;;;5031130;28;19925;-74
2022/04/22 07:57:11;;;;;;;;;;;12.80;99.90;;;;;;5031496;28;19936;-74
2022/04/22 07:59:41;;;;;;;;;;;12.90;99.90;;;;;;5031070;28;19925;-74
2022/04/22 08:02:08;;;;;;;;;;;13.10;99.90;;;;;;5022310;28;19925;-74
2022/04/22 08:04:35;;;;;;;;;;;13.20;99.90;;;;;;5017121;28;19940;-74
2022/04/22 08:07:02;;;;;;;;;;;13.30;99.90;;;;;;5022001;28;19976;-74
2022/04/22 08:09:29;;;;;;;;;;;13.30;99.90;;;;;;5011361;28;19979;-75
2022/04/22 08:11:56;;;;;;;;;;;13.20;99.90;;;;;;5011033;28;19926;-75
2022/04/22 08:14:23;;;;;;;;;;;13.20;99.90;;;;;;5027792;28;19965;-74
2022/04/22 08:16:52;;;;;;;;;;;13.20;99.90;;;;;;5027707;28;19925;-74
2022/04/22 08:19:19;;;;;;;;;;;13.20;99.90;;;;;;5027230;28;19925;-74
2022/04/22 08:21:46;;;;;;;;;;;13.30;99.90;;;;;;5027747;28;19925;-74
2022/04/22 08:24:13;;;;;;;;;;;13.20;99.90;;;;;;5027377;28;19995;-74
2022/04/22 08:26:40;;;;;;;;;;;13.30;99.90;;;;;;5027460;28;19932;-74
2022/04/22 08:29:07;;;;;;;;;;;13.20;99.90;;;;;;5027151;28;20021;-74
2022/04/22 08:31:34;;;;;;;;;;;13.40;99.90;;;;;;5027084;28;19979;-74
2022/04/22 08:34:02;;;;;;;;;;;13.40;99.90;;;;;;5027022;28;19930;-74
2022/04/22 08:36:29;;;;;;;;;;;13.50;99.90;;;;;;5011105;28;20016;-74
2022/04/22 08:38:57;;;;;;;;;;;13.60;99.90;;;;;;5027032;28;19957;-74
2022/04/22 08:41:24;;;;;;;;;;;13.80;99.90;;;;;;5030155;28;20381;-74
2022/04/22 08:43:51;;;;;;;;;;;14.00;99.90;;;;;;5021768;28;19952;-74
2022/04/22 08:51:50;;;;;;;;;;;14.40;99.90;;;;;;5024338;28;20011;-74
2022/04/22 08:54:17;;;;;;;;;;;14.50;99.90;;;;;;5026275;28;19925;-74
2022/04/22 08:56:44;;;;;;;;;;;14.50;99.90;;;;;;5026671;28;20347;-73
2022/04/22 08:59:11;;;;;;;;;;;14.70;99.90;;;;;;5021903;28;19929;-73
2022/04/22 09:01:38;;;;;;;;;;;14.80;99.90;;;;;;5020441;28;20407;-73
2022/04/22 09:04:06;;;;;;;;;;;14.80;99.90;;;;;;5024055;28;20293;-73
2022/04/22 09:06:33;;;;;;;;;;;14.90;99.90;;;;;;5029769;28;19929;-74
2022/04/22 09:09:02;;;;;;;;;;;14.90;99.90;;;;;;5013320;28;20456;-73
2022/04/22 09:11:30;;;;;;;;;;;14.90;99.90;;;;;;5023135;28;19925;-74
2022/04/22 09:14:00;;;;;;;;;;;15.00;99.90;;;;;;5021531;28;20282;-73
2022/04/22 09:16:28;;;;;;;;;;;15.10;99.90;;;;;;5027145;28;19925;-73
2022/04/22 09:18:58;;;;;;;;;;;15.10;99.90;;;;;;5029702;28;20440;-74
2022/04/22 09:21:27;;;;;;;;;;;15.00;99.90;;;;;;5021613;28;20290;-74
2022/04/22 09:23:54;;;;;;;;;;;14.90;99.90;;;;;;5029454;28;19925;-73
2022/04/22 09:26:22;;;;;;;;;;;14.90;99.90;;;;;;5030681;28;19925;-73
2022/04/22 09:28:58;;;;;;;;;;;14.80;99.90;;;;;;5024330;28;19936;-73
2022/04/22 09:31:25;;;;;;;;;;;15.00;99.90;;;;;;5027735;28;20293;-73
2022/04/22 09:33:53;;;;;;;;;;;15.20;99.90;;;;;;5021417;28;20015;-74
2022/04/22 09:44:54;;;;;;;;;;;15.30;99.90;;;;;;5033316;28;19928;-73
2022/04/22 09:47:21;;;;;;;;;;;15.50;99.90;;;;;;5029421;28;19925;-74
2022/04/22 09:49:48;;;;;;;;;;;15.70;99.90;;;;;;5024778;28;19929;-74
2022/04/22 09:52:14;;;;;;;;;;;15.60;99.90;;;;;;5018885;28;19925;-73
2022/04/22 09:54:55;;;;;;;;;;;15.60;99.90;;;;;;5022571;28;19925;-73
2022/04/22 09:57:21;;;;;;;;;;;15.70;99.90;;;;;;5028548;28;20292;-73
2022/04/22 09:59:48;;;;;;;;;;;15.70;99.90;;;;;;5038278;28;19925;-73
2022/04/22 10:02:17;;;;;;;;;;;15.70;99.90;;;;;;5048875;28;19925;-73
2022/04/22 10:04:44;;;;;;;;;;;15.80;99.90;;;;;;5033997;28;20376;-73
2022/04/22 10:07:11;;;;;;;;;;;15.80;99.90;;;;;;5024152;28;20454;-73
2022/04/22 10:09:38;;;;;;;;;;;15.70;99.90;;;;;;5026319;28;19957;-72
2022/04/22 10:12:10;;;;;;;;;;;15.70;99.90;;;;;;5022646;28;19952;-73
2022/04/22 10:14:39;;;;;;;;;;;15.80;99.90;;;;;;5027831;28;19925;-75
2022/04/22 10:17:06;;;;;;;;;;;16.00;99.90;;;;;;5024143;28;20376;-74
2022/04/22 10:19:33;;;;;;;;;;;16.30;99.90;;;;;;5019908;28;19926;-73
2022/04/22 10:22:01;;;;;;;;;;;16.60;99.90;;;;;;5025373;28;19925;-74
2022/04/22 10:24:31;;;;;;;;;;;17.00;99.90;;;;;;5033028;28;19936;-74
2022/04/22 10:26:59;;;;;;;;;;;17.30;99.90;;;;;;5033072;28;19925;-74
2022/04/22 10:29:29;;;;;;;;;;;17.30;99.90;;;;;;5032715;28;19964;-74
2022/04/22 10:31:56;;;;;;;;;;;17.40;99.90;;;;;;5032434;28;19975;-73
2022/04/22 10:34:37;;;;;;;;;;;17.40;99.90;;;;;;5032575;28;19929;-74
2022/04/22 10:37:04;;;;;;;;;;;17.40;99.90;;;;;;5047852;28;19924;-74
2022/04/22 10:39:34;;;;;;;;;;;17.20;99.90;;;;;;5052163;28;19929;-74
2022/04/22 10:42:01;;;;;;;;;;;17.00;99.90;;;;;;5052396;28;19963;-74
2022/04/22 10:47:15;;;;;;;;;;;17.00;99.90;;;;;;5034349;28;19926;-74
2022/04/22 10:49:43;;;;;;;;;;;17.30;99.90;;;;;;5028296;28;19929;-73
2022/04/22 10:52:11;;;;;;;;;;;17.50;99.90;;;;;;5032213;28;20389;-73
2022/04/22 10:55:04;;;;;;;;;;;17.60;99.90;;;;;;5031837;28;19925;-73
2022/04/22 10:57:33;;;;;;;;;;;17.80;99.90;;;;;;5032005;28;19925;-74
2022/04/22 11:00:27;;;;;;;;;;;17.90;99.90;;;;;;5031878;28;19935;-73
2022/04/22 11:03:10;;;;;;;;;;;17.90;99.90;;;;;;5031845;28;20011;-73
2022/04/22 11:05:38;;;;;;;;;;;17.90;99.90;;;;;;5031890;28;19925;-73
2022/04/22 11:08:06;;;;;;;;;;;17.90;99.90;;;;;;5032032;28;19980;-73
2022/04/22 11:10:48;;;;;;;;;;;18.00;99.90;;;;;;5028083;28;19972;-74
2022/04/22 11:13:27;;;;;;;;;;;18.20;99.90;;;;;;5016772;28;19933;-73
2022/04/22 11:15:58;;;;;;;;;;;18.50;99.90;;;;;;5011715;28;20340;-73
2022/04/22 11:18:25;;;;;;;;;;;18.50;99.90;;;;;;5012801;28;19926;-73
2022/04/22 11:20:54;;;;;;;;;;;18.80;99.90;;;;;;5025738;28;19929;-74
2022/04/22 11:23:22;;;;;;;;;;;18.90;99.90;;;;;;5025939;28;19925;-74
2022/04/22 11:25:51;;;;;;;;;;;19.30;99.90;;;;;;5023317;28;19933;-74
2022/04/22 11:28:19;;;;;;;;;;;19.40;99.90;;;;;;5035458;28;20452;-74
2022/04/22 11:30:46;;;;;;;;;;;19.80;99.90;;;;;;5011728;28;19926;-74
2022/04/22 11:33:17;;;;;;;;;;;20.10;99.90;;;;;;5012046;28;19936;-74
2022/04/22 11:35:45;;;;;;;;;;;20.40;99.90;;;;;;5012286;28;19925;-74
2022/04/22 11:38:13;;;;;;;;;;;20.60;99.90;;;;;;5012283;28;19933;-74
2022/04/22 11:40:40;;;;;;;;;;;20.70;99.90;;;;;;5011771;28;19926;-74
2022/04/22 11:43:07;;;;;;;;;;;20.80;99.90;;;;;;5012144;28;19925;-74
2022/04/22 11:45:35;;;;;;;;;;;20.80;99.90;;;;;;5018724;28;19941;-74
2022/04/22 11:48:06;;;;;;;;;;;20.40;99.90;;;;;;5029785;28;19925;-73
2022/04/22 11:50:39;;;;;;;;;;;21.30;99.90;;;;;;5021823;28;19932;-74
2022/04/22 11:53:08;;;;;;;;;;;22.90;99.90;;;;;;5031392;28;20360;-75
2022/04/22 11:55:37;;;;;;;;;;;24.80;99.90;;;;;;5031411;28;19925;-75
2022/04/22 11:58:04;;;;;;;;;;;26.10;99.90;;;;;;5031415;28;19972;-76
2022/04/22 12:06:15;;;;;;;;;;;22.60;99.90;;;;;;5007624;28;19976;-74
2022/04/22 12:08:50;;;;;;;;;;;21.70;99.90;;;;;;5011579;28;19926;-74
2022/04/22 12:11:17;;;;;;;;;;;21.20;99.90;;;;;;5021007;28;19929;-74
2022/04/22 12:13:44;;;;;;;;;;;21.20;99.90;;;;;;5031368;28;19929;-74
2022/04/22 12:16:11;;;;;;;;;;;20.90;99.90;;;;;;5026277;28;19929;-74
2022/04/22 12:18:40;;;;;;;;;;;20.30;99.90;;;;;;5030672;28;19980;-74
2022/04/22 12:21:08;;;;;;;;;;;20.20;99.90;;;;;;5030033;28;20020;-74
2022/04/22 12:23:36;;;;;;;;;;;20.40;99.90;;;;;;5024363;28;19932;-74
2022/04/22 12:26:04;;;;;;;;;;;20.40;99.90;;;;;;5025251;28;19984;-74
2022/04/22 12:28:31;;;;;;;;;;;20.20;99.90;;;;;;5025694;28;19929;-74
2022/04/22 12:30:58;;;;;;;;;;;19.90;99.90;;;;;;5017539;28;20004;-74
2022/04/22 12:33:25;;;;;;;;;;;19.70;99.90;;;;;;5017644;28;20385;-71
2022/04/22 12:36:01;;;;;;;;;;;19.40;99.90;;;;;;5010733;28;19932;-73
2022/04/22 12:38:28;;;;;;;;;;;19.20;99.90;;;;;;5010811;28;19925;-74
2022/04/22 12:40:57;;;;;;;;;;;19.20;99.90;;;;;;5010254;28;19926;-73
2022/04/22 12:43:27;;;;;;;;;;;19.20;99.90;;;;;;5011445;28;20003;-77
2022/04/22 12:54:11;;;;;;;;;;;20.80;99.90;;;;;;5010311;28;19925;-75
2022/04/22 12:56:39;;;;;;;;;;;20.70;99.90;;;;;;5010802;28;19934;-80
2022/04/22 12:59:07;;;;;;;;;;;20.10;99.90;;;;;;5014414;28;20348;-78
2022/04/22 13:01:37;;;;;;;;;;;20.00;99.90;;;;;;5010990;28;19933;-75
2022/04/22 13:04:05;;;;;;;;;;;20.00;99.90;;;;;;5010431;28;19925;-74
2022/04/22 13:06:38;;;;;;;;;;;19.80;99.90;;;;;;5010746;28;20351;-73
2022/04/22 13:09:05;;;;;;;;;;;20.90;99.90;;;;;;5010954;28;19929;-74
2022/04/22 13:11:32;;;;;;;;;;;21.60;99.90;;;;;;5011104;28;19925;-74
2022/04/22 13:14:01;;;;;;;;;;;22.40;99.90;;;;;;5010701;28;20304;-75
2022/04/22 13:16:28;;;;;;;;;;;23.00;99.90;;;;;;5020112;28;19960;-75
2022/04/22 13:18:56;;;;;;;;;;;23.60;99.90;;;;;;5026678;28;19925;-74
2022/04/22 13:21:23;;;;;;;;;;;23.60;99.90;;;;;;5022178;28;19929;-74
2022/04/22 13:23:50;;;;;;;;;;;23.40;99.90;;;;;;5029322;28;19925;-75
2022/04/22 13:26:17;;;;;;;;;;;23.00;99.90;;;;;;5029396;28;20462;-75
2022/04/22 13:28:44;;;;;;;;;;;23.60;99.90;;;;;;5029698;28;19925;-75
2022/04/22 13:31:13;;;;;;;;;;;24.40;99.90;;;;;;5029370;28;19936;-75
2022/04/22 13:33:40;;;;;;;;;;;25.40;99.90;;;;;;5029364;28;20019;-75
2022/04/22 13:36:11;;;;;;;;;;;25.80;99.90;;;;;;5029976;28;19925;-76
2022/04/22 13:38:38;;;;;;;;;;;26.00;99.90;;;;;;5029608;28;19968;-76
2022/04/22 13:41:05;;;;;;;;;;;25.00;99.90;;;;;;5029557;28;20411;-75
2022/04/22 13:43:32;;;;;;;;;;;24.60;99.90;;;;;;5030643;28;19925;-75
2022/04/22 13:54:13;;;;;;;;;;;26.90;99.90;;;;;;5028532;28;20453;-75
2022/04/22 13:56:40;;;;;;;;;;;26.10;99.90;;;;;;5022655;28;19937;-75
2022/04/22 13:59:07;;;;;;;;;;;25.50;99.90;;;;;;5024003;28;19941;-76
2022/04/22 14:01:34;;;;;;;;;;;24.90;99.90;;;;;;5033426;28;20392;-75
2022/04/22 14:04:02;;;;;;;;;;;24.30;99.90;;;;;;5033181;28;19932;-75
2022/04/22 14:06:29;;;;;;;;;;;24.00;99.90;;;;;;5033407;28;19925;-75
2022/04/22 14:08:56;;;;;;;;;;;24.10;99.90;;;;;;5032753;28;19925;-75
2022/04/22 14:11:23;;;;;;;;;;;24.60;99.90;;;;;;5022918;28;19932;-75
2022/04/22 14:13:50;;;;;;;;;;;25.60;99.90;;;;;;5013434;28;20396;-76
2022/04/22 14:16:16;;;;;;;;;;;26.40;99.90;;;;;;5013303;28;19932;-75
2022/04/22 14:18:44;;;;;;;;;;;26.30;99.90;;;;;;5013392;28;19925;-75
2022/04/22 14:21:13;;;;;;;;;;;26.00;99.90;;;;;;5013058;28;19925;-76
2022/04/22 14:23:39;;;;;;;;;;;25.00;99.90;;;;;;5023611;28;19925;-74
2022/04/22 14:26:07;;;;;;;;;;;25.10;99.90;;;;;;5033962;28;19925;-75
2022/04/22 14:28:34;;;;;;;;;;;25.00;99.90;;;;;;5032900;28;19925;-74
2022/04/22 14:31:01;;;;;;;;;;;24.60;99.90;;;;;;5026320;28;19929;-75
2022/04/22 14:33:29;;;;;;;;;;;24.30;99.90;;;;;;5024739;28;19968;-74
2022/04/22 14:35:55;;;;;;;;;;;23.90;99.90;;;;;;5022663;28;20045;-74
2022/04/22 14:38:24;;;;;;;;;;;22.80;99.90;;;;;;5032626;28;19925;-75
2022/04/22 14:40:51;;;;;;;;;;;22.40;99.90;;;;;;5032146;28;19925;-74
2022/04/22 14:43:18;;;;;;;;;;;23.30;99.90;;;;;;5032534;28;19937;-74
2022/04/22 14:45:45;;;;;;;;;;;24.30;99.90;;;;;;5032463;28;20679;-75
2022/04/22 14:48:12;;;;;;;;;;;24.60;99.90;;;;;;5032541;28;19925;-75
2022/04/22 14:50:40;;;;;;;;;;;24.50;99.90;;;;;;5028756;28;19945;-75
2022/04/22 14:53:07;;;;;;;;;;;24.30;99.90;;;;;;5012602;28;20021;-75
2022/04/22 14:55:38;;;;;;;;;;;24.20;99.90;;;;;;5011188;28;19972;-76
2022/04/22 14:58:04;;;;;;;;;;;24.10;99.90;;;;;;5012851;28;20024;-75
2022/04/22 15:00:33;;;;;;;;;;;23.80;99.90;;;;;;5015166;28;19925;-75
2022/04/22 15:03:00;;;;;;;;;;;22.90;99.90;;;;;;5019949;28;19925;-74
2022/04/22 15:05:27;;;;;;;;;;;22.10;99.90;;;;;;5014816;28;19932;-75
2022/04/22 15:07:53;;;;;;;;;;;21.70;99.90;;;;;;5012889;28;19925;-75
2022/04/22 15:10:20;;;;;;;;;;;21.40;99.90;;;;;;5012736;28;19925;-75
2022/04/22 15:12:50;;;;;;;;;;;21.10;99.90;;;;;;5029372;28;19925;-75
2022/04/22 15:15:17;;;;;;;;;;;21.10;99.90;;;;;;5028904;28;19969;-76
2022/04/22 15:25:57;;;;;;;;;;;22.40;99.90;;;;;;5012197;28;20411;-75
2022/04/22 15:28:25;;;;;;;;;;;22.90;99.90;;;;;;5012540;28;19925;-76
2022/04/22 15:31:08;;;;;;;;;;;22.90;99.90;;;;;;5037020;23;19925;-73
2022/04/22 15:33:35;;;;;;;;;;;23.10;99.90;;;;;;5024148;28;20308;-75
2022/04/22 15:36:05;;;;;;;;;;;23.10;99.90;;;;;;5027876;28;19933;-74
2022/04/22 15:38:31;;;;;;;;;;;23.30;99.90;;;;;;5042700;28;20420;-74
2022/04/22 15:40:58;;;;;;;;;;;23.00;99.90;;;;;;5028366;28;19971;-75
2022/04/22 15:43:26;;;;;;;;;;;22.50;99.90;;;;;;5011977;28;19926;-74
2022/04/22 15:45:54;;;;;;;;;;;22.00;99.90;;;;;;5007853;28;19965;-74
2022/04/22 15:48:21;;;;;;;;;;;21.60;99.90;;;;;;5009749;28;19926;-74
2022/04/22 15:50:47;;;;;;;;;;;21.50;99.90;;;;;;5011041;28;20316;-74
2022/04/22 15:53:14;;;;;;;;;;;21.70;99.90;;;;;;5011727;28;19929;-75
2022/04/22 15:55:44;;;;;;;;;;;21.60;99.90;;;;;;5011062;28;19932;-74